Time,TemperatureF,DewpointF,PressureIn,WindDirection,WindDirectionDegrees,WindSpeedMPH,WindSpeedGustMPH,Humidity,HourlyPrecipIn,Conditions,Clouds,dailyrainin,SoftwareType,DateUTC
2013-03-02 00:00:00,37.5,29.6,29.90,NNE,12,0.0,0.0,73,0.00,,,0.00,Wunderground v.1.15,2013-03-02 05:00:00,
2013-03-02 00:05:00,37.3,29.1,29.91,NNE,12,0.0,0.0,72,0.00,,,0.00,Wunderground v.1.15,2013-03-02 05:05:00,
2013-03-02 00:15:00,37.1,29.2,29.90,NNE,12,0.0,0.0,73,0.00,,,0.00,Wunderground v.1.15,2013-03-02 05:15:00,
2013-03-02 00:20:00,37.1,28.6,29.90,NNE,12,0.0,0.0,71,0.00,,,0.00,Wunderground v.1.15,2013-03-02 05:20:00,
2013-03-02 00:25:00,37.1,29.2,29.90,NNE,12,0.0,0.0,73,0.00,,,0.00,Wunderground v.1.15,2013-03-02 05:25:00,
2013-03-02 00:30:00,37.0,29.5,29.91,NNE,12,0.0,0.0,74,0.00,,,0.00,Wunderground v.1.15,2013-03-02 05:30:00,
2013-03-02 00:35:00,36.9,29.4,29.91,NNE,12,0.0,0.0,74,0.00,,,0.00,Wunderground v.1.15,2013-03-02 05:35:00,
2013-03-02 00:40:00,36.9,28.7,29.91,NNE,12,0.0,0.0,72,0.00,,,0.00,Wunderground v.1.15,2013-03-02 05:40:00,
2013-03-02 00:45:00,36.9,30.0,29.91,NNE,12,0.0,0.0,76,0.00,,,0.00,Wunderground v.1.15,2013-03-02 05:45:00,
2013-03-02 00:55:00,36.7,29.2,29.91,NNE,12,0.0,0.0,74,0.00,,,0.00,Wunderground v.1.15,2013-03-02 05:55:00,
2013-03-02 01:00:00,36.7,29.5,29.91,NNE,12,0.0,0.0,75,0.00,,,0.00,Wunderground v.1.15,2013-03-02 06:00:00,
2013-03-02 01:05:00,36.7,30.2,29.91,NNE,12,0.0,0.0,77,0.00,,,0.00,Wunderground v.1.15,2013-03-02 06:05:00,
2013-03-02 01:10:00,36.7,30.2,29.92,NNE,12,0.0,0.0,77,0.00,,,0.00,Wunderground v.1.15,2013-03-02 06:10:00,
2013-03-02 01:20:00,36.6,30.1,29.91,NNE,12,0.0,0.0,77,0.00,,,0.00,Wunderground v.1.15,2013-03-02 06:20:00,
2013-03-02 01:25:00,36.5,30.0,29.91,NNE,12,0.0,0.0,77,0.00,,,0.00,Wunderground v.1.15,2013-03-02 06:25:00,
2013-03-02 01:30:00,36.6,29.4,29.91,NNE,12,0.0,0.0,75,0.00,,,0.00,Wunderground v.1.15,2013-03-02 06:30:00,
2013-03-02 01:40:00,36.7,30.2,29.90,NNE,12,0.0,0.0,77,0.00,,,0.00,Wunderground v.1.15,2013-03-02 06:40:00,
2013-03-02 01:45:00,36.8,29.3,29.90,NNE,12,0.0,0.0,74,0.00,,,0.00,Wunderground v.1.15,2013-03-02 06:45:00,
2013-03-02 01:50:00,36.9,28.7,29.90,NNE,12,0.0,0.0,72,0.00,,,0.00,Wunderground v.1.15,2013-03-02 06:50:00,
2013-03-02 02:00:00,37.0,28.8,29.90,NNE,12,0.0,0.0,72,0.00,,,0.00,Wunderground v.1.15,2013-03-02 07:00:00,
2013-03-02 02:05:00,36.9,28.7,29.90,NNE,12,0.0,0.0,72,0.00,,,0.00,Wunderground v.1.15,2013-03-02 07:05:00,
2013-03-02 02:10:00,36.9,28.4,29.90,NNE,12,0.0,0.0,71,0.00,,,0.00,Wunderground v.1.15,2013-03-02 07:10:00,
2013-03-02 02:15:00,37.0,28.1,29.90,NNE,12,0.0,0.0,70,0.00,,,0.00,Wunderground v.1.15,2013-03-02 07:15:00,
2013-03-02 02:25:00,36.9,28.7,29.89,NNE,12,0.0,0.0,72,0.00,,,0.00,Wunderground v.1.15,2013-03-02 07:25:00,
2013-03-02 02:30:00,36.8,28.3,29.90,NNE,12,0.0,0.0,71,0.00,,,0.00,Wunderground v.1.15,2013-03-02 07:30:00,
2013-03-02 02:35:00,36.8,29.3,29.89,NNE,12,0.0,0.0,74,0.00,,,0.00,Wunderground v.1.15,2013-03-02 07:35:00,
2013-03-02 02:45:00,36.6,28.8,29.89,NNE,12,0.0,0.0,73,0.00,,,0.00,Wunderground v.1.15,2013-03-02 07:45:00,
2013-03-02 02:50:00,36.5,28.7,29.89,NNE,12,0.0,0.0,73,0.00,,,0.00,Wunderground v.1.15,2013-03-02 07:50:00,
2013-03-02 02:55:00,36.5,28.7,29.89,NNE,12,0.0,0.0,73,0.00,,,0.00,Wunderground v.1.15,2013-03-02 07:55:00,
2013-03-02 03:05:00,36.3,28.5,29.89,NNE,12,0.0,0.0,73,0.00,,,0.00,Wunderground v.1.15,2013-03-02 08:05:00,
2013-03-02 03:10:00,36.3,28.8,29.89,NNE,12,0.0,0.0,74,0.00,,,0.00,Wunderground v.1.15,2013-03-02 08:10:00,
2013-03-02 03:15:00,36.2,29.0,29.89,NNE,12,0.0,0.0,75,0.00,,,0.00,Wunderground v.1.15,2013-03-02 08:15:00,
2013-03-02 03:25:00,36.2,30.0,29.89,NNE,12,0.0,0.0,78,0.00,,,0.00,Wunderground v.1.15,2013-03-02 08:25:00,
2013-03-02 03:30:00,36.1,30.2,29.89,NNE,12,0.0,0.0,79,0.00,,,0.00,Wunderground v.1.15,2013-03-02 08:30:00,
2013-03-02 03:35:00,36.0,30.1,29.88,NNE,12,0.0,0.0,79,0.00,,,0.00,Wunderground v.1.15,2013-03-02 08:35:00,
2013-03-02 03:40:00,36.0,30.1,29.88,NNE,12,0.0,0.0,79,0.00,,,0.00,Wunderground v.1.15,2013-03-02 08:40:00,
2013-03-02 03:50:00,35.8,29.6,29.88,NNE,12,0.0,0.0,78,0.00,,,0.00,Wunderground v.1.15,2013-03-02 08:50:00,
2013-03-02 03:55:00,35.7,29.2,29.88,NNE,12,0.0,0.0,77,0.00,,,0.00,Wunderground v.1.15,2013-03-02 08:55:00,
2013-03-02 04:00:00,35.7,29.8,29.88,NNE,12,0.0,0.0,79,0.00,,,0.00,Wunderground v.1.15,2013-03-02 09:00:00,
2013-03-02 04:05:00,35.6,29.7,29.88,NNE,12,0.0,0.0,79,0.00,,,0.00,Wunderground v.1.15,2013-03-02 09:05:00,
2013-03-02 04:15:00,35.3,28.8,29.88,NNE,12,0.0,0.0,77,0.00,,,0.00,Wunderground v.1.15,2013-03-02 09:15:00,
2013-03-02 04:20:00,35.3,29.4,29.88,NNE,12,0.0,0.0,79,0.00,,,0.00,Wunderground v.1.15,2013-03-02 09:20:00,
2013-03-02 04:30:00,35.2,30.0,29.88,NNE,12,0.0,0.0,81,0.00,,,0.00,Wunderground v.1.15,2013-03-02 09:30:00,
2013-03-02 04:35:00,35.1,29.9,29.88,NNE,12,0.0,0.0,81,0.00,,,0.00,Wunderground v.1.15,2013-03-02 09:35:00,
2013-03-02 04:40:00,35.0,30.1,29.88,NNE,12,0.0,0.0,82,0.00,,,0.00,Wunderground v.1.15,2013-03-02 09:40:00,
2013-03-02 04:50:00,34.8,29.9,29.88,NNE,12,0.0,0.0,82,0.00,,,0.00,Wunderground v.1.15,2013-03-02 09:50:00,
2013-03-02 04:55:00,34.6,29.7,29.88,NNE,12,0.0,0.0,82,0.00,,,0.00,Wunderground v.1.15,2013-03-02 09:55:00,
2013-03-02 05:00:00,34.4,28.9,29.88,NNE,12,0.0,0.0,80,0.00,,,0.00,Wunderground v.1.15,2013-03-02 10:00:00,
2013-03-02 05:10:00,34.2,28.7,29.88,NNE,12,0.0,0.0,80,0.00,,,0.00,Wunderground v.1.15,2013-03-02 10:10:00,
2013-03-02 05:15:00,34.1,29.2,29.88,NNE,12,0.0,0.0,82,0.00,,,0.00,Wunderground v.1.15,2013-03-02 10:15:00,
2013-03-02 05:25:00,33.8,29.2,29.88,NNE,12,0.0,0.0,83,0.00,,,0.00,Wunderground v.1.15,2013-03-02 10:25:00,
2013-03-02 05:30:00,33.7,29.1,29.88,NNE,12,0.0,0.0,83,0.00,,,0.00,Wunderground v.1.15,2013-03-02 10:30:00,
2013-03-02 05:40:00,33.5,29.2,29.88,NNE,12,0.0,0.0,84,0.00,,,0.00,Wunderground v.1.15,2013-03-02 10:40:00,
2013-03-02 05:45:00,33.4,29.1,29.88,NNE,12,0.0,0.0,84,0.00,,,0.00,Wunderground v.1.15,2013-03-02 10:45:00,
2013-03-02 05:50:00,33.3,29.0,29.88,NNE,12,0.0,0.0,84,0.00,,,0.00,Wunderground v.1.15,2013-03-02 10:50:00,
2013-03-02 06:00:00,33.3,29.3,29.89,NNE,12,0.0,0.0,85,0.00,,,0.00,Wunderground v.1.15,2013-03-02 11:00:00,
2013-03-02 06:05:00,33.2,29.5,29.89,NNE,12,0.0,0.0,86,0.00,,,0.00,Wunderground v.1.15,2013-03-02 11:05:00,
2013-03-02 06:10:00,33.2,29.5,29.89,NNE,12,0.0,0.0,86,0.00,,,0.00,Wunderground v.1.15,2013-03-02 11:10:00,
2013-03-02 06:20:00,33.1,29.1,29.89,NNE,12,0.0,0.0,85,0.00,,,0.00,Wunderground v.1.15,2013-03-02 11:20:00,
2013-03-02 06:25:00,33.1,29.4,29.89,NNE,12,0.0,0.0,86,0.00,,,0.00,Wunderground v.1.15,2013-03-02 11:25:00,
2013-03-02 06:30:00,33.1,29.4,29.89,NNE,12,0.0,0.0,86,0.00,,,0.00,Wunderground v.1.15,2013-03-02 11:30:00,
2013-03-02 06:35:00,33.1,29.1,29.89,NNE,12,0.0,0.0,85,0.00,,,0.00,Wunderground v.1.15,2013-03-02 11:35:00,
2013-03-02 06:45:00,33.2,29.5,29.89,NNE,12,0.0,0.0,86,0.00,,,0.00,Wunderground v.1.15,2013-03-02 11:45:00,
2013-03-02 06:50:00,33.2,29.5,29.89,NNE,12,0.0,0.0,86,0.00,,,0.00,Wunderground v.1.15,2013-03-02 11:50:00,
2013-03-02 06:55:00,33.2,29.8,29.89,NNE,12,0.0,0.0,87,0.00,,,0.00,Wunderground v.1.15,2013-03-02 11:55:00,
2013-03-02 07:05:00,33.2,29.5,29.89,NNE,12,0.0,0.0,86,0.00,,,0.00,Wunderground v.1.15,2013-03-02 12:05:00,
2013-03-02 07:10:00,33.2,28.9,29.89,NNE,12,0.0,0.0,84,0.00,,,0.00,Wunderground v.1.15,2013-03-02 12:10:00,
2013-03-02 07:15:00,33.2,29.2,29.89,NNE,12,0.0,0.0,85,0.00,,,0.00,Wunderground v.1.15,2013-03-02 12:15:00,
2013-03-02 07:20:00,33.2,29.2,29.89,NNE,12,0.0,0.0,85,0.00,,,0.00,Wunderground v.1.15,2013-03-02 12:20:00,
2013-03-02 07:30:00,33.2,28.9,29.89,NNE,12,0.0,0.0,84,0.00,,,0.00,Wunderground v.1.15,2013-03-02 12:30:00,
2013-03-02 07:35:00,33.3,29.3,29.89,NNE,12,0.0,0.0,85,0.00,,,0.00,Wunderground v.1.15,2013-03-02 12:35:00,
2013-03-02 07:40:00,33.4,29.4,29.90,NNE,12,0.0,0.0,85,0.00,,,0.00,Wunderground v.1.15,2013-03-02 12:40:00,
2013-03-02 07:50:00,33.6,29.6,29.90,NNE,12,0.0,0.0,85,0.00,,,0.00,Wunderground v.1.15,2013-03-02 12:50:00,
2013-03-02 07:55:00,33.7,29.1,29.90,NNE,12,0.0,0.0,83,0.00,,,0.00,Wunderground v.1.15,2013-03-02 12:55:00,
2013-03-02 08:00:00,33.8,29.2,29.90,NNE,12,0.0,0.0,83,0.00,,,0.00,Wunderground v.1.15,2013-03-02 13:00:00,
2013-03-02 08:10:00,34.2,29.3,29.90,NNE,12,0.0,0.0,82,0.00,,,0.00,Wunderground v.1.15,2013-03-02 13:10:00,
2013-03-02 08:15:00,34.3,29.4,29.90,NNE,12,0.0,0.0,82,0.00,,,0.00,Wunderground v.1.15,2013-03-02 13:15:00,
2013-03-02 08:20:00,34.7,30.1,29.90,NNE,12,0.0,0.0,83,0.00,,,0.00,Wunderground v.1.15,2013-03-02 13:20:00,
2013-03-02 08:25:00,35.0,30.1,29.90,NNE,12,0.0,0.0,82,0.00,,,0.00,Wunderground v.1.15,2013-03-02 13:25:00,
2013-03-02 08:35:00,35.9,30.0,29.90,North,5,0.0,1.0,79,0.00,,,0.00,Wunderground v.1.15,2013-03-02 13:35:00,
2013-03-02 08:40:00,36.4,28.9,29.90,North,360,0.0,0.0,74,0.00,,,0.00,Wunderground v.1.15,2013-03-02 13:40:00,
2013-03-02 08:45:00,36.9,28.0,29.90,North,349,0.0,0.0,70,0.00,,,0.00,Wunderground v.1.15,2013-03-02 13:45:00,
2013-03-02 08:55:00,37.7,27.7,29.90,ENE,59,0.0,0.0,67,0.00,,,0.00,Wunderground v.1.15,2013-03-02 13:55:00,
2013-03-02 09:00:00,38.1,27.7,29.90,North,355,0.0,3.0,66,0.00,,,0.00,Wunderground v.1.15,2013-03-02 14:00:00,
2013-03-02 09:05:00,38.7,27.9,29.90,ENE,57,0.0,3.0,65,0.00,,,0.00,Wunderground v.1.15,2013-03-02 14:05:00,
2013-03-02 09:15:00,38.9,27.4,29.90,NNE,25,0.0,0.0,63,0.00,,,0.00,Wunderground v.1.15,2013-03-02 14:15:00,
2013-03-02 09:20:00,39.0,27.8,29.89,North,9,0.0,0.0,64,0.00,,,0.00,Wunderground v.1.15,2013-03-02 14:20:00,
2013-03-02 09:25:00,39.2,28.0,29.89,ENE,72,0.0,0.0,64,0.00,,,0.00,Wunderground v.1.15,2013-03-02 14:25:00,
2013-03-02 09:35:00,39.5,27.2,29.89,ENE,73,1.0,1.0,61,0.00,,,0.00,Wunderground v.1.15,2013-03-02 14:35:00,
2013-03-02 09:40:00,39.7,27.3,29.89,ENE,78,0.0,1.0,61,0.00,,,0.00,Wunderground v.1.15,2013-03-02 14:40:00,
2013-03-02 09:45:00,40.1,28.5,29.89,NNE,13,1.0,1.0,63,0.00,,,0.00,Wunderground v.1.15,2013-03-02 14:45:00,
2013-03-02 09:50:00,40.6,28.6,29.89,NE,35,1.0,2.0,62,0.00,,,0.00,Wunderground v.1.15,2013-03-02 14:50:00,
2013-03-02 10:00:00,41.3,27.6,29.88,ENE,62,2.0,2.0,58,0.00,,,0.00,Wunderground v.1.15,2013-03-02 15:00:00,
2013-03-02 10:05:00,41.4,27.3,29.88,NW,323,2.0,2.0,57,0.00,,,0.00,Wunderground v.1.15,2013-03-02 15:05:00,
2013-03-02 10:10:00,41.5,27.4,29.88,NE,49,1.0,1.0,57,0.00,,,0.00,Wunderground v.1.15,2013-03-02 15:10:00,
2013-03-02 10:15:00,42.1,28.8,29.88,NE,41,0.0,1.0,59,0.00,,,0.00,Wunderground v.1.15,2013-03-02 15:15:00,
2013-03-02 10:25:00,41.9,27.8,29.88,ENE,60,1.0,1.0,57,0.00,,,0.00,Wunderground v.1.15,2013-03-02 15:25:00,
2013-03-02 10:30:00,41.9,26.9,29.88,NE,49,1.0,1.0,55,0.00,,,0.00,Wunderground v.1.15,2013-03-02 15:30:00,
2013-03-02 10:35:00,41.7,26.7,29.88,ENE,70,1.0,1.0,55,0.00,,,0.00,Wunderground v.1.15,2013-03-02 15:35:00,
2013-03-02 10:45:00,42.2,27.6,29.88,East,95,1.0,1.0,56,0.00,,,0.00,Wunderground v.1.15,2013-03-02 15:45:00,
2013-03-02 10:50:00,42.6,28.0,29.88,NNW,329,1.0,1.0,56,0.00,,,0.00,Wunderground v.1.15,2013-03-02 15:50:00,
2013-03-02 10:55:00,43.1,27.6,29.88,WNW,289,1.0,1.0,54,0.00,,,0.00,Wunderground v.1.15,2013-03-02 15:55:00,
2013-03-02 11:00:00,43.3,29.1,29.88,WNW,283,1.0,1.0,57,0.00,,,0.00,Wunderground v.1.15,2013-03-02 16:00:00,
2013-03-02 11:15:00,43.9,28.3,29.87,NNE,30,1.0,1.0,54,0.00,,,0.00,Wunderground v.1.15,2013-03-02 16:15:00,
2013-03-02 11:20:00,44.4,29.2,29.87,WNW,302,2.0,2.0,55,0.00,,,0.00,Wunderground v.1.15,2013-03-02 16:20:00,
2013-03-02 11:25:00,44.2,27.7,29.87,SW,223,2.0,3.0,52,0.00,,,0.00,Wunderground v.1.15,2013-03-02 16:25:00,
2013-03-02 11:35:00,43.5,27.0,29.87,NE,50,2.0,2.0,52,0.00,,,0.00,Wunderground v.1.15,2013-03-02 16:35:00,
2013-03-02 11:40:00,43.6,27.6,29.87,West,267,1.0,4.0,53,0.00,,,0.00,Wunderground v.1.15,2013-03-02 16:40:00,
2013-03-02 11:45:00,44.0,27.0,29.87,ENE,62,2.0,2.0,51,0.00,,,0.00,Wunderground v.1.15,2013-03-02 16:45:00,
2013-03-02 11:55:00,44.0,28.4,29.86,SE,145,1.0,1.0,54,0.00,,,0.00,Wunderground v.1.15,2013-03-02 16:55:00,
2013-03-02 12:00:00,44.3,27.8,29.86,NNW,343,1.0,1.0,52,0.00,,,0.00,Wunderground v.1.15,2013-03-02 17:00:00,
2013-03-02 12:05:00,44.3,27.3,29.86,West,281,1.0,1.0,51,0.00,,,0.00,Wunderground v.1.15,2013-03-02 17:05:00,
2013-03-02 12:10:00,44.3,27.3,29.86,WSW,242,2.0,2.0,51,0.00,,,0.00,Wunderground v.1.15,2013-03-02 17:10:00,
2013-03-02 12:20:00,44.3,28.2,29.85,WSW,256,3.0,3.0,53,0.00,,,0.00,Wunderground v.1.15,2013-03-02 17:20:00,
2013-03-02 12:25:00,44.3,27.3,29.85,NW,324,3.0,3.0,51,0.00,,,0.00,Wunderground v.1.15,2013-03-02 17:25:00,
2013-03-02 12:30:00,44.3,26.8,29.85,NNE,30,2.0,3.0,50,0.00,,,0.00,Wunderground v.1.15,2013-03-02 17:30:00,
2013-03-02 12:40:00,44.2,27.7,29.85,North,5,2.0,2.0,52,0.00,,,0.00,Wunderground v.1.15,2013-03-02 17:40:00,
2013-03-02 12:45:00,44.2,27.2,29.85,West,265,2.0,3.0,51,0.00,,,0.00,Wunderground v.1.15,2013-03-02 17:45:00,
2013-03-02 12:50:00,44.2,27.2,29.84,WSW,240,2.0,2.0,51,0.00,,,0.00,Wunderground v.1.15,2013-03-02 17:50:00,
2013-03-02 12:55:00,44.3,27.3,29.84,NE,47,2.0,2.0,51,0.00,,,0.00,Wunderground v.1.15,2013-03-02 17:55:00,
2013-03-02 13:05:00,45.1,29.0,29.84,NNW,344,1.0,1.0,53,0.00,,,0.00,Wunderground v.1.15,2013-03-02 18:05:00,
2013-03-02 13:10:00,45.2,27.6,29.84,WNW,295,1.0,2.0,50,0.00,,,0.00,Wunderground v.1.15,2013-03-02 18:10:00,
2013-03-02 13:20:00,44.3,27.8,29.83,NNW,346,2.0,2.0,52,0.00,,,0.00,Wunderground v.1.15,2013-03-02 18:20:00,
2013-03-02 13:25:00,44.3,28.2,29.83,ENE,61,0.0,2.0,53,0.00,,,0.00,Wunderground v.1.15,2013-03-02 18:25:00,
2013-03-02 13:30:00,44.4,27.9,29.83,North,5,1.0,1.0,52,0.00,,,0.00,Wunderground v.1.15,2013-03-02 18:30:00,
2013-03-02 13:40:00,44.2,28.1,29.83,WNW,285,1.0,1.0,53,0.00,,,0.00,Wunderground v.1.15,2013-03-02 18:40:00,
2013-03-02 13:45:00,44.1,27.1,29.83,WNW,299,1.0,1.0,51,0.00,,,0.00,Wunderground v.1.15,2013-03-02 18:45:00,
2013-03-02 13:50:00,43.8,27.3,29.83,West,266,1.0,1.0,52,0.00,,,0.00,Wunderground v.1.15,2013-03-02 18:50:00,
2013-03-02 13:55:00,43.7,27.2,29.83,WNW,300,1.0,1.0,52,0.00,,,0.00,Wunderground v.1.15,2013-03-02 18:55:00,
2013-03-02 14:00:00,43.6,28.0,29.82,WNW,282,0.0,0.0,54,0.00,,,0.00,Wunderground v.1.15,2013-03-02 19:00:00,
2013-03-02 14:10:00,43.6,27.6,29.82,ENE,57,0.0,0.0,53,0.00,,,0.00,Wunderground v.1.15,2013-03-02 19:10:00,
2013-03-02 14:20:00,43.5,27.9,29.82,North,10,1.0,1.0,54,0.00,,,0.00,Wunderground v.1.15,2013-03-02 19:20:00,
2013-03-02 14:25:00,43.5,27.5,29.82,NNE,18,1.0,1.0,53,0.00,,,0.00,Wunderground v.1.15,2013-03-02 19:25:00,
2013-03-02 14:30:00,43.5,27.0,29.82,SW,223,0.0,0.0,52,0.00,,,0.00,Wunderground v.1.15,2013-03-02 19:30:00,
2013-03-02 14:35:00,43.5,27.5,29.82,NW,317,0.0,0.0,53,0.00,,,0.00,Wunderground v.1.15,2013-03-02 19:35:00,
2013-03-02 14:45:00,43.3,27.3,29.82,West,279,0.0,0.0,53,0.00,,,0.00,Wunderground v.1.15,2013-03-02 19:45:00,
2013-03-02 14:50:00,43.2,27.7,29.82,WNW,283,0.0,0.0,54,0.00,,,0.00,Wunderground v.1.15,2013-03-02 19:50:00,
2013-03-02 14:55:00,43.2,27.7,29.82,NW,305,0.0,0.0,54,0.00,,,0.00,Wunderground v.1.15,2013-03-02 19:55:00,
2013-03-02 15:00:00,43.2,27.7,29.82,NW,308,0.0,1.0,54,0.00,,,0.00,Wunderground v.1.15,2013-03-02 20:00:00,
2013-03-02 15:10:00,43.4,28.3,29.82,NW,317,0.0,0.0,55,0.00,,,0.00,Wunderground v.1.15,2013-03-02 20:10:00,
2013-03-02 15:15:00,43.4,27.4,29.82,North,5,0.0,0.0,53,0.00,,,0.00,Wunderground v.1.15,2013-03-02 20:15:00,
2013-03-02 15:20:00,43.5,28.4,29.82,NW,305,0.0,0.0,55,0.00,,,0.00,Wunderground v.1.15,2013-03-02 20:20:00,
2013-03-02 15:30:00,43.6,27.6,29.82,SW,219,1.0,1.0,53,0.00,,,0.00,Wunderground v.1.15,2013-03-02 20:30:00,
2013-03-02 15:35:00,43.5,27.5,29.82,NW,321,2.0,2.0,53,0.00,,,0.00,Wunderground v.1.15,2013-03-02 20:35:00,
2013-03-02 15:40:00,43.6,27.6,29.82,West,275,2.0,2.0,53,0.00,,,0.00,Wunderground v.1.15,2013-03-02 20:40:00,
2013-03-02 15:50:00,43.8,27.3,29.82,WNW,298,1.0,1.0,52,0.00,,,0.00,Wunderground v.1.15,2013-03-02 20:50:00,
2013-03-02 15:55:00,43.8,27.3,29.82,WNW,299,1.0,1.0,52,0.00,,,0.00,Wunderground v.1.15,2013-03-02 20:55:00,
2013-03-02 16:00:00,43.9,27.9,29.82,North,355,0.0,0.0,53,0.00,,,0.00,Wunderground v.1.15,2013-03-02 21:00:00,
2013-03-02 16:10:00,44.0,28.0,29.82,NW,310,1.0,1.0,53,0.00,,,0.00,Wunderground v.1.15,2013-03-02 21:10:00,
2013-03-02 16:15:00,44.1,28.0,29.82,WNW,287,1.0,1.0,53,0.00,,,0.00,Wunderground v.1.15,2013-03-02 21:15:00,
2013-03-02 16:20:00,44.2,28.1,29.82,NW,309,0.0,0.0,53,0.00,,,0.00,Wunderground v.1.15,2013-03-02 21:20:00,
2013-03-02 16:25:00,44.2,27.7,29.83,ENE,63,0.0,0.0,52,0.00,,,0.00,Wunderground v.1.15,2013-03-02 21:25:00,
2013-03-02 16:30:00,44.1,28.0,29.82,WSW,237,1.0,1.0,53,0.00,,,0.00,Wunderground v.1.15,2013-03-02 21:30:00,
2013-03-02 16:40:00,43.8,27.8,29.82,NNE,28,0.0,1.0,53,0.00,,,0.00,Wunderground v.1.15,2013-03-02 21:40:00,
2013-03-02 16:45:00,43.8,27.8,29.83,NNE,24,0.0,1.0,53,0.00,,,0.00,Wunderground v.1.15,2013-03-02 21:45:00,
2013-03-02 16:55:00,43.6,26.6,29.83,SW,215,1.0,1.0,51,0.00,,,0.00,Wunderground v.1.15,2013-03-02 21:55:00,
2013-03-02 17:00:00,43.4,26.5,29.83,North,5,1.0,1.0,51,0.00,,,0.00,Wunderground v.1.15,2013-03-02 22:00:00,
2013-03-02 17:05:00,43.4,27.4,29.83,NNW,346,1.0,1.0,53,0.00,,,0.00,Wunderground v.1.15,2013-03-02 22:05:00,
2013-03-02 17:15:00,43.5,27.0,29.83,WNW,286,1.0,1.0,52,0.00,,,0.00,Wunderground v.1.15,2013-03-02 22:15:00,
2013-03-02 17:20:00,43.4,26.5,29.83,NW,308,1.0,1.0,51,0.00,,,0.00,Wunderground v.1.15,2013-03-02 22:20:00,
2013-03-02 17:25:00,43.2,26.3,29.83,SE,126,1.0,1.0,51,0.00,,,0.00,Wunderground v.1.15,2013-03-02 22:25:00,
2013-03-02 17:35:00,43.0,26.1,29.84,North,360,1.0,1.0,51,0.00,,,0.00,Wunderground v.1.15,2013-03-02 22:35:00,
2013-03-02 17:40:00,43.0,27.0,29.84,NE,55,0.0,2.0,53,0.00,,,0.00,Wunderground v.1.15,2013-03-02 22:40:00,
2013-03-02 17:45:00,42.8,26.4,29.84,ENE,62,0.0,2.0,52,0.00,,,0.00,Wunderground v.1.15,2013-03-02 22:45:00,
2013-03-02 17:55:00,42.4,26.5,29.84,WSW,254,0.0,0.0,53,0.00,,,0.00,Wunderground v.1.15,2013-03-02 22:55:00,
2013-03-02 18:00:00,42.2,25.8,29.84,NNE,31,0.0,0.0,52,0.00,,,0.00,Wunderground v.1.15,2013-03-02 23:00:00,
2013-03-02 18:05:00,42.1,25.7,29.85,NNE,13,0.0,1.0,52,0.00,,,0.00,Wunderground v.1.15,2013-03-02 23:05:00,
2013-03-02 18:15:00,41.9,25.5,29.85,NW,311,1.0,1.0,52,0.00,,,0.00,Wunderground v.1.15,2013-03-02 23:15:00,
2013-03-02 18:20:00,41.7,25.8,29.85,West,279,0.0,0.0,53,0.00,,,0.00,Wunderground v.1.15,2013-03-02 23:20:00,
2013-03-02 18:25:00,41.5,25.6,29.85,SSW,204,0.0,0.0,53,0.00,,,0.00,Wunderground v.1.15,2013-03-02 23:25:00,
2013-03-02 18:30:00,41.4,25.1,29.85,SW,232,0.0,0.0,52,0.00,,,0.00,Wunderground v.1.15,2013-03-02 23:30:00,
2013-03-02 18:40:00,40.9,24.6,29.86,East,98,0.0,0.0,52,0.00,,,0.00,Wunderground v.1.15,2013-03-02 23:40:00,
2013-03-02 18:45:00,40.6,24.3,29.87,SW,234,1.0,1.0,52,0.00,,,0.00,Wunderground v.1.15,2013-03-02 23:45:00,
2013-03-02 18:50:00,40.3,25.0,29.87,ENE,59,1.0,1.0,54,0.00,,,0.00,Wunderground v.1.15,2013-03-02 23:50:00,
2013-03-02 18:55:00,39.8,24.0,29.87,NNW,344,1.0,1.0,53,0.00,,,0.00,Wunderground v.1.15,2013-03-02 23:55:00,
2013-03-02 19:00:00,39.5,24.7,29.87,NE,55,1.0,1.0,55,0.00,,,0.00,Wunderground v.1.15,2013-03-03 00:00:00,
2013-03-02 19:10:00,38.7,24.3,29.88,NNW,348,1.0,1.0,56,0.00,,,0.00,Wunderground v.1.15,2013-03-03 00:10:00,
2013-03-02 19:20:00,38.0,24.1,29.88,North,10,0.0,0.0,57,0.00,,,0.00,Wunderground v.1.15,2013-03-03 00:20:00,
2013-03-02 19:25:00,37.7,23.8,29.89,NNW,347,1.0,1.0,57,0.00,,,0.00,Wunderground v.1.15,2013-03-03 00:25:00,
2013-03-02 19:30:00,37.4,24.0,29.89,NE,41,1.0,1.0,58,0.00,,,0.00,Wunderground v.1.15,2013-03-03 00:30:00,
2013-03-02 19:35:00,37.1,23.7,29.89,WSW,245,0.0,2.0,58,0.00,,,0.00,Wunderground v.1.15,2013-03-03 00:35:00,
2013-03-02 19:45:00,36.7,23.7,29.89,NE,38,1.0,1.0,59,0.00,,,0.00,Wunderground v.1.15,2013-03-03 00:45:00,
2013-03-02 19:50:00,36.5,23.1,29.89,NE,38,1.0,1.0,58,0.00,,,0.00,Wunderground v.1.15,2013-03-03 00:50:00,
2013-03-02 20:00:00,36.0,23.4,29.90,NE,46,0.0,0.0,60,0.00,,,0.00,Wunderground v.1.15,2013-03-03 01:00:00,
2013-03-02 20:05:00,35.7,23.6,29.90,NE,46,0.0,0.0,61,0.00,,,0.00,Wunderground v.1.15,2013-03-03 01:05:00,
2013-03-02 20:10:00,35.4,23.7,29.90,NNE,13,0.0,0.0,62,0.00,,,0.00,Wunderground v.1.15,2013-03-03 01:10:00,
2013-03-02 20:15:00,35.2,23.1,29.90,NE,34,0.0,0.0,61,0.00,,,0.00,Wunderground v.1.15,2013-03-03 01:15:00,
2013-03-02 20:25:00,34.8,23.1,29.91,NE,34,0.0,0.0,62,0.00,,,0.00,Wunderground v.1.15,2013-03-03 01:25:00,
2013-03-02 20:30:00,34.5,23.2,29.91,NE,34,0.0,0.0,63,0.00,,,0.00,Wunderground v.1.15,2013-03-03 01:30:00,
2013-03-02 20:40:00,34.0,23.1,29.91,NNW,331,0.0,0.0,64,0.00,,,0.00,Wunderground v.1.15,2013-03-03 01:40:00,
2013-03-02 20:45:00,33.8,23.3,29.91,NNW,331,0.0,0.0,65,0.00,,,0.00,Wunderground v.1.15,2013-03-03 01:45:00,
2013-03-02 20:50:00,33.5,22.6,29.91,WNW,287,0.0,0.0,64,0.00,,,0.00,Wunderground v.1.15,2013-03-03 01:50:00,
2013-03-02 20:55:00,33.4,22.5,29.91,WNW,287,0.0,0.0,64,0.00,,,0.00,Wunderground v.1.15,2013-03-03 01:55:00,
2013-03-02 21:00:00,33.3,22.8,29.91,North,355,0.0,0.0,65,0.00,,,0.00,Wunderground v.1.15,2013-03-03 02:00:00,
2013-03-02 21:10:00,33.0,22.9,29.92,NE,40,0.0,0.0,66,0.00,,,0.00,Wunderground v.1.15,2013-03-03 02:10:00,
2013-03-02 21:15:00,32.9,22.8,29.92,NW,323,0.0,0.0,66,0.00,,,0.00,Wunderground v.1.15,2013-03-03 02:15:00,
2013-03-02 21:20:00,32.6,22.5,29.92,NW,323,0.0,0.0,66,0.00,,,0.00,Wunderground v.1.15,2013-03-03 02:20:00,
2013-03-02 21:30:00,32.2,22.8,29.92,NW,323,0.0,0.0,68,0.00,,,0.00,Wunderground v.1.15,2013-03-03 02:30:00,
2013-03-02 21:35:00,31.9,23.2,29.92,NW,323,0.0,0.0,70,0.00,,,0.00,Wunderground v.1.15,2013-03-03 02:35:00,
2013-03-02 21:40:00,31.5,23.8,29.92,NW,323,0.0,0.0,73,0.00,,,0.00,Wunderground v.1.15,2013-03-03 02:40:00,
2013-03-02 21:50:00,30.9,22.3,29.92,NW,323,0.0,0.0,70,0.00,,,0.00,Wunderground v.1.15,2013-03-03 02:50:00,
2013-03-02 21:55:00,30.7,23.1,29.93,NW,323,0.0,0.0,73,0.00,,,0.00,Wunderground v.1.15,2013-03-03 02:55:00,
2013-03-02 22:00:00,30.5,23.8,29.93,NW,323,0.0,0.0,76,0.00,,,0.00,Wunderground v.1.15,2013-03-03 03:00:00,
2013-03-02 22:10:00,30.1,24.1,29.93,NW,323,0.0,0.0,78,0.00,,,0.00,Wunderground v.1.15,2013-03-03 03:10:00,
2013-03-02 22:15:00,30.1,24.1,29.93,NW,323,0.0,0.0,78,0.00,,,0.00,Wunderground v.1.15,2013-03-03 03:15:00,
2013-03-02 22:20:00,30.1,23.8,29.93,NW,323,0.0,0.0,77,0.00,,,0.00,Wunderground v.1.15,2013-03-03 03:20:00,
2013-03-02 22:30:00,30.2,23.9,29.93,NW,323,0.0,0.0,77,0.00,,,0.00,Wunderground v.1.15,2013-03-03 03:30:00,
2013-03-02 22:40:00,30.8,24.4,29.93,NW,323,0.0,0.0,77,0.00,,,0.00,Wunderground v.1.15,2013-03-03 03:40:00,
2013-03-02 22:45:00,31.1,24.4,29.93,NW,323,0.0,0.0,76,0.00,,,0.00,Wunderground v.1.15,2013-03-03 03:45:00,
2013-03-02 22:55:00,31.4,23.7,29.93,NW,323,0.0,0.0,73,0.00,,,0.00,Wunderground v.1.15,2013-03-03 03:55:00,
2013-03-02 23:00:00,31.7,24.4,29.93,NE,47,0.0,0.0,74,0.00,,,0.00,Wunderground v.1.15,2013-03-03 04:00:00,
2013-03-02 23:05:00,32.1,23.4,29.92,NNW,329,0.0,0.0,70,0.00,,,0.00,Wunderground v.1.15,2013-03-03 04:05:00,
2013-03-02 23:10:00,32.2,23.5,29.92,NNW,329,0.0,0.0,70,0.00,,,0.00,Wunderground v.1.15,2013-03-03 04:10:00,
2013-03-02 23:20:00,33.0,23.2,29.92,North,10,0.0,0.0,67,0.00,,,0.00,Wunderground v.1.15,2013-03-03 04:20:00,
2013-03-02 23:25:00,33.3,22.4,29.92,NNE,14,0.0,0.0,64,0.00,,,0.00,Wunderground v.1.15,2013-03-03 04:25:00,
2013-03-02 23:30:00,33.6,22.0,29.92,North,360,1.0,1.0,62,0.00,,,0.00,Wunderground v.1.15,2013-03-03 04:30:00,
2013-03-02 23:40:00,33.8,22.9,29.92,North,10,0.0,0.0,64,0.00,,,0.00,Wunderground v.1.15,2013-03-03 04:40:00,
2013-03-02 23:45:00,33.8,22.5,29.92,North,10,0.0,0.0,63,0.00,,,0.00,Wunderground v.1.15,2013-03-03 04:45:00,
2013-03-02 23:55:00,33.9,21.9,29.92,NE,45,1.0,1.0,61,0.00,,,0.00,Wunderground v.1.15,2013-03-03 04:55:00,